Time;durP1;ratioP1;P1;durP2;ratioP2;P2;SDS_P1;SDS_P2;PMS_P1;PMS_P2;Temp;Humidity;BMP_temperature;BMP_pressure;BME280_temperature;BME280_humidity;BME280_pressure;Samples;Min_cycle;Max_cycle;Signal;HPM_P1;HPM_P2
2022/11/29 00:01:08;;;;;;;11.27;5.28;;;7.90;99.90;;;;;;5050632;28;20036;-66
2022/11/29 00:03:34;;;;;;;8.75;4.72;;;7.90;99.90;;;;;;5021342;28;20029;-66
2022/11/29 00:06:05;;;;;;;8.63;3.88;;;7.90;99.90;;;;;;5031354;28;20033;-66
2022/11/29 00:08:31;;;;;;;15.43;4.13;;;7.90;99.90;;;;;;5044178;28;20035;-66
2022/11/29 00:11:04;;;;;;;15.52;5.53;;;7.90;99.90;;;;;;5049560;28;20036;-66
2022/11/29 00:13:29;;;;;;;9.68;3.60;;;7.90;99.90;;;;;;5022152;28;20037;-66
2022/11/29 00:16:02;;;;;;;10.23;4.07;;;7.90;99.90;;;;;;5030273;28;20029;-66
2022/11/29 00:18:28;;;;;;;6.93;4.30;;;7.90;99.90;;;;;;5040656;28;20377;-66
2022/11/29 00:20:54;;;;;;;13.40;4.63;;;7.90;99.90;;;;;;5047504;28;20029;-66
2022/11/29 00:23:19;;;;;;;13.07;3.83;;;7.90;99.90;;;;;;5042360;28;20080;-66
2022/11/29 00:25:45;;;;;;;10.68;6.70;;;7.80;99.90;;;;;;5045078;28;20392;-66
2022/11/29 00:28:11;;;;;;;5.82;3.75;;;7.90;99.90;;;;;;5044477;28;20102;-66
2022/11/29 00:30:36;;;;;;;9.40;4.22;;;7.80;99.90;;;;;;5024731;28;20025;-67
2022/11/29 00:33:03;;;;;;;11.25;4.88;;;7.90;99.90;;;;;;5029457;28;20511;-66
2022/11/29 00:35:29;;;;;;;11.85;4.40;;;7.90;99.90;;;;;;5045619;28;20024;-67
2022/11/29 00:37:54;;;;;;;7.82;4.38;;;7.90;99.90;;;;;;5049313;28;20029;-67
2022/11/29 00:40:20;;;;;;;15.75;5.97;;;7.90;99.90;;;;;;5038211;28;20490;-66
2022/11/29 00:42:46;;;;;;;8.88;5.05;;;7.90;99.90;;;;;;5050670;28;20079;-67
2022/11/29 00:45:12;;;;;;;11.32;4.63;;;7.90;99.90;;;;;;5042133;28;20029;-67
2022/11/29 00:47:37;;;;;;;8.32;4.70;;;7.90;99.90;;;;;;5050409;28;20025;-66
2022/11/29 00:50:05;;;;;;;7.30;4.97;;;7.90;99.90;;;;;;5018968;28;20033;-67
2022/11/29 00:52:30;;;;;;;8.85;4.18;;;7.90;99.90;;;;;;5050611;28;20492;-67
2022/11/29 00:54:56;;;;;;;8.40;4.50;;;7.90;99.90;;;;;;5036038;28;20127;-67
2022/11/29 00:57:22;;;;;;;12.80;5.45;;;7.90;99.90;;;;;;5050427;28;20029;-67
2022/11/29 00:59:47;;;;;;;13.57;5.28;;;7.90;99.90;;;;;;5036352;28;20036;-67
2022/11/29 01:02:13;;;;;;;8.30;4.70;;;7.90;99.90;;;;;;5050778;28;20468;-66
2022/11/29 01:04:39;;;;;;;8.52;4.32;;;7.90;99.90;;;;;;5018880;28;20056;-67
2022/11/29 01:07:04;;;;;;;10.57;5.55;;;7.80;99.90;;;;;;5050115;28;20480;-66
2022/11/29 01:09:30;;;;;;;12.95;5.78;;;7.80;99.90;;;;;;5036438;28;20036;-66
2022/11/29 01:11:56;;;;;;;8.25;4.00;;;7.80;99.90;;;;;;5032494;28;20029;-67
2022/11/29 01:14:22;;;;;;;7.03;4.13;;;7.80;99.90;;;;;;5035885;28;20044;-66
2022/11/29 01:16:47;;;;;;;13.35;4.68;;;7.80;99.90;;;;;;5050323;28;20104;-66
2022/11/29 01:19:13;;;;;;;7.70;3.75;;;7.80;99.90;;;;;;5036317;28;20112;-66
2022/11/29 01:21:40;;;;;;;9.20;5.07;;;7.80;99.90;;;;;;5050360;28;20082;-66
2022/11/29 01:24:05;;;;;;;8.77;4.43;;;7.80;99.90;;;;;;5035631;28;20054;-66
2022/11/29 01:26:31;;;;;;;11.00;4.90;;;7.80;99.90;;;;;;5050231;28;20530;-66
2022/11/29 01:28:58;;;;;;;10.95;4.28;;;7.70;99.90;;;;;;5018734;28;20088;-66
2022/11/29 01:31:31;;;;;;;9.88;3.83;;;7.70;99.90;;;;;;5050232;28;20503;-67
2022/11/29 01:34:00;;;;;;;14.73;4.43;;;7.80;99.90;;;;;;5018611;28;20068;-66
2022/11/29 01:36:26;;;;;;;9.20;5.43;;;7.70;99.90;;;;;;5049949;28;20062;-66
2022/11/29 01:38:52;;;;;;;9.35;4.50;;;7.70;99.90;;;;;;5036885;28;20054;-67
2022/11/29 01:41:24;;;;;;;7.90;4.00;;;7.70;99.90;;;;;;5053902;28;20456;-67
2022/11/29 01:44:04;;;;;;;9.00;4.07;;;7.80;99.90;;;;;;5022218;28;20041;-67
2022/11/29 01:46:36;;;;;;;12.68;5.80;;;7.80;99.90;;;;;;5053830;28;20043;-67
2022/11/29 01:49:11;;;;;;;8.32;4.45;;;7.80;99.90;;;;;;5045440;28;20017;-67
2022/11/29 01:51:43;;;;;;;9.00;4.22;;;7.80;99.90;;;;;;5036259;28;20033;-67
2022/11/29 01:54:09;;;;;;;;;;;7.80;99.90;;;;;;5022656;28;20087;-67
2022/11/29 01:56:36;;;;;;;7.53;3.40;;;7.80;99.90;;;;;;5053588;28;19973;-67
2022/11/29 01:59:07;;;;;;;8.10;4.95;;;7.80;99.90;;;;;;5039506;28;20059;-67
2022/11/29 02:01:35;;;;;;;10.80;5.38;;;7.80;99.90;;;;;;5035922;28;20033;-67
2022/11/29 02:04:01;;;;;;;7.90;4.18;;;7.80;99.90;;;;;;5042120;28;20037;-67
2022/11/29 02:06:28;;;;;;;8.88;3.53;;;7.80;99.90;;;;;;5030436;28;20492;-67
2022/11/29 02:08:54;;;;;;;7.68;4.78;;;7.80;99.90;;;;;;5008145;28;20543;-67
2022/11/29 02:11:59;;;;;;;6.78;3.83;;;7.80;99.90;;;;;;5025350;28;20437;-67
2022/11/29 02:14:47;;;;;;;8.25;4.72;;;7.80;99.90;;;;;;5024130;28;20040;-67
2022/11/29 02:18:01;;;;;;;9.18;4.70;;;7.80;99.90;;;;;;5038580;28;20036;-67
2022/11/29 02:21:01;;;;;;;8.85;4.45;;;7.80;99.90;;;;;;5027974;28;20158;-67
2022/11/29 02:24:13;;;;;;;7.45;4.45;;;7.80;99.90;;;;;;5016851;28;20037;-67
2022/11/29 02:26:53;;;;;;;7.82;4.20;;;7.80;99.90;;;;;;5045686;28;20072;-67
2022/11/29 02:29:41;;;;;;;10.73;5.22;;;7.80;99.90;;;;;;5022000;28;20039;-67
2022/11/29 02:32:45;;;;;;;8.52;5.15;;;7.80;99.90;;;;;;5028632;28;20566;-66
2022/11/29 02:36:11;;;;;;;11.02;4.90;;;7.90;99.90;;;;;;5038415;28;20029;-67
2022/11/29 02:39:11;;;;;;;8.15;3.78;;;7.90;99.90;;;;;;4921180;29;20031;-67
2022/11/29 02:41:53;;;;;;;12.05;4.72;;;7.90;99.90;;;;;;5022267;28;20105;-66
2022/11/29 02:45:12;;;;;;;7.78;5.20;;;7.90;99.90;;;;;;5020906;28;20033;-66
2022/11/29 02:48:02;;;;;;;11.95;4.72;;;7.90;99.90;;;;;;5044811;28;20108;-67
2022/11/29 02:50:39;;;;;;;12.68;5.20;;;7.90;99.90;;;;;;5041457;28;20297;-66
2022/11/29 02:53:39;;;;;;;7.65;4.82;;;7.90;99.90;;;;;;5048032;28;20031;-67
2022/11/29 02:56:45;;;;;;;9.23;5.22;;;7.80;99.90;;;;;;5050732;28;20025;-66
2022/11/29 02:59:51;;;;;;;10.35;4.63;;;7.90;99.90;;;;;;5022747;28;20036;-66
2022/11/29 03:02:41;;;;;;;9.63;4.63;;;7.90;99.90;;;;;;5038785;28;20032;-67
2022/11/29 03:06:01;;;;;;;10.60;4.43;;;7.90;99.90;;;;;;5020989;28;20057;-67
2022/11/29 03:09:05;;;;;;;12.13;5.80;;;7.90;99.90;;;;;;4995485;28;20088;-66
2022/11/29 03:11:49;;;;;;;8.38;3.85;;;7.80;99.90;;;;;;5041317;28;20029;-67
2022/11/29 03:14:26;;;;;;;12.95;5.88;;;7.90;99.90;;;;;;5021592;28;20039;-67
2022/11/29 03:17:42;;;;;;;8.07;4.22;;;7.90;99.90;;;;;;5050153;28;20082;-67
2022/11/29 03:20:57;;;;;;;8.20;4.35;;;7.90;99.90;;;;;;5037665;28;20104;-66
2022/11/29 03:23:55;;;;;;;7.93;4.80;;;7.90;99.90;;;;;;5001251;28;20515;-67
2022/11/29 03:27:15;;;;;;;8.18;4.50;;;7.90;99.90;;;;;;5039632;28;20021;-66
2022/11/29 03:29:55;;;;;;;11.88;4.57;;;7.90;99.90;;;;;;4997534;28;20051;-66
2022/11/29 03:32:36;;;;;;;8.18;4.80;;;7.90;99.90;;;;;;5038989;28;20445;-66
2022/11/29 03:35:28;;;;;;;;;;;7.90;99.90;;;;;;5007631;28;20044;-68
2022/11/29 03:38:08;;;;;;;;;;;7.90;99.90;;;;;;5026017;28;20416;-68
2022/11/29 03:41:13;;;;;;;6.65;3.70;;;7.90;99.90;;;;;;5027301;28;19923;-68
2022/11/29 03:44:08;;;;;;;10.63;4.75;;;7.80;99.90;;;;;;5009775;28;20046;-68
2022/11/29 03:46:55;;;;;;;9.73;4.78;;;7.80;99.90;;;;;;5038987;28;20040;-67
2022/11/29 03:49:29;;;;;;;6.50;3.85;;;7.90;99.90;;;;;;5029763;28;20025;-66
2022/11/29 03:52:33;;;;;;;11.70;4.88;;;7.90;99.90;;;;;;5046852;28;20033;-66
2022/11/29 03:55:22;;;;;;;16.45;5.22;;;7.90;99.90;;;;;;5033157;28;20045;-66
2022/11/29 03:58:28;;;;;;;8.40;4.10;;;7.90;99.90;;;;;;5051189;28;20033;-66
2022/11/29 04:01:27;;;;;;;7.80;4.15;;;7.90;99.90;;;;;;5035764;28;20045;-66
2022/11/29 04:04:35;;;;;;;8.68;4.50;;;7.90;99.90;;;;;;5027239;28;20057;-66
2022/11/29 04:07:29;;;;;;;6.40;3.88;;;7.80;99.90;;;;;;5014201;28;20544;-66
2022/11/29 04:10:43;;;;;;;19.13;6.18;;;7.80;99.90;;;;;;5035971;28;20042;-66
2022/11/29 04:13:33;;;;;;;7.93;3.95;;;7.80;99.90;;;;;;5035149;28;20028;-67
2022/11/29 04:16:33;;;;;;;8.38;5.63;;;7.90;99.90;;;;;;5024513;28;20043;-67
2022/11/29 04:19:40;;;;;;;9.65;4.70;;;7.80;99.90;;;;;;5033783;28;20071;-67
2022/11/29 04:22:33;;;;;;;11.88;5.70;;;7.80;99.90;;;;;;5035463;28;20035;-67
2022/11/29 04:25:26;;;;;;;14.15;5.30;;;7.70;99.90;;;;;;5035314;28;20112;-67
2022/11/29 04:28:36;;;;;;;9.27;4.60;;;7.70;99.90;;;;;;5050641;28;20365;-67
2022/11/29 04:31:11;;;;;;;11.68;4.60;;;7.70;99.90;;;;;;5041845;28;20488;-67
2022/11/29 04:33:50;;;;;;;9.30;4.20;;;7.70;99.90;;;;;;5026022;28;20050;-67
2022/11/29 04:36:48;;;;;;;9.77;4.68;;;7.70;99.90;;;;;;5023005;28;20104;-67
2022/11/29 04:39:42;;;;;;;21.90;5.45;;;7.70;99.90;;;;;;4993975;28;20034;-67
2022/11/29 04:42:17;;;;;;;9.68;4.53;;;7.70;99.90;;;;;;5016718;28;20484;-67
2022/11/29 04:44:59;;;;;;;9.23;5.00;;;7.70;99.90;;;;;;5041377;28;20037;-68
2022/11/29 04:47:43;;;;;;;12.57;5.75;;;7.60;99.90;;;;;;5033524;28;20112;-67
2022/11/29 04:50:49;;;;;;;12.90;5.20;;;7.60;99.90;;;;;;5035483;28;20028;-68
2022/11/29 04:53:47;;;;;;;8.48;5.60;;;7.60;99.90;;;;;;5036004;28;20548;-68
2022/11/29 04:56:25;;;;;;;8.68;4.70;;;7.60;99.90;;;;;;5003627;28;20072;-67
2022/11/29 04:59:18;;;;;;;8.55;5.45;;;7.60;99.90;;;;;;5031109;28;20033;-67
2022/11/29 05:02:28;;;;;;;11.77;5.85;;;7.60;99.90;;;;;;5043063;28;20029;-67
2022/11/29 05:05:36;;;;;;;10.68;4.35;;;7.60;99.90;;;;;;5034763;28;20106;-68
2022/11/29 05:08:27;;;;;;;9.98;5.35;;;7.60;99.90;;;;;;5050196;28;20435;-67
2022/11/29 05:11:46;;;;;;;12.88;5.95;;;7.70;99.90;;;;;;5030096;28;20044;-67
2022/11/29 05:14:54;;;;;;;9.30;3.92;;;7.60;99.90;;;;;;4958722;28;20052;-67
2022/11/29 05:17:55;;;;;;;11.60;5.00;;;7.60;99.90;;;;;;5040258;28;20104;-67
2022/11/29 05:20:41;;;;;;;13.35;5.55;;;7.60;99.90;;;;;;5023875;28;20361;-67
2022/11/29 05:23:37;;;;;;;8.07;4.90;;;7.60;99.90;;;;;;5004289;28;20061;-67
2022/11/29 05:26:25;;;;;;;9.35;5.05;;;7.60;99.90;;;;;;5021738;28;20040;-67
2022/11/29 05:29:24;;;;;;;8.73;4.43;;;7.60;99.90;;;;;;5021541;28;20021;-66
2022/11/29 05:32:17;;;;;;;11.32;4.25;;;7.60;99.90;;;;;;5021872;28;20068;-67
2022/11/29 05:35:27;;;;;;;9.43;4.57;;;7.60;99.90;;;;;;5023813;28;20041;-67
2022/11/29 05:37:59;;;;;;;10.07;4.93;;;7.60;99.90;;;;;;5041617;28;20047;-67
2022/11/29 05:40:54;;;;;;;11.82;5.88;;;7.60;99.90;;;;;;4992110;28;20527;-67
2022/11/29 05:43:47;;;;;;;6.63;4.45;;;7.60;99.90;;;;;;5022641;28;20034;-67
2022/11/29 05:46:39;;;;;;;8.82;3.88;;;7.50;99.90;;;;;;5038917;28;20050;-67
2022/11/29 05:49:36;;;;;;;6.32;3.88;;;7.50;99.90;;;;;;5032929;28;20032;-67
2022/11/29 05:52:39;;;;;;;6.63;3.88;;;7.50;99.90;;;;;;5036081;28;20516;-66
2022/11/29 05:55:49;;;;;;;14.40;6.22;;;7.50;99.90;;;;;;5036619;23;20037;-67
2022/11/29 05:58:49;;;;;;;8.18;3.95;;;7.60;99.90;;;;;;5040270;28;20138;-66
2022/11/29 06:01:24;;;;;;;7.45;4.20;;;7.60;99.90;;;;;;5013492;28;20030;-67
2022/11/29 06:04:16;;;;;;;8.63;3.47;;;7.50;99.90;;;;;;5029991;28;20045;-67
2022/11/29 06:07:18;;;;;;;13.27;5.97;;;7.60;99.90;;;;;;5027885;28;20033;-67
2022/11/29 06:10:16;;;;;;;17.55;7.72;;;7.60;99.90;;;;;;4982478;28;20112;-67
2022/11/29 06:12:54;;;;;;;9.00;4.97;;;7.60;99.90;;;;;;5042236;28;20396;-69
2022/11/29 06:15:41;;;;;;;11.02;5.57;;;7.60;99.90;;;;;;5027494;28;20036;-69
2022/11/29 06:18:41;;;;;;;9.07;4.97;;;7.60;99.90;;;;;;5016791;28;20076;-67
2022/11/29 06:21:26;;;;;;;8.68;5.35;;;7.60;99.90;;;;;;5031946;28;20125;-66
2022/11/29 06:24:26;;;;;;;11.82;5.32;;;7.50;99.90;;;;;;5013912;28;20038;-68
2022/11/29 06:27:21;;;;;;;8.20;4.22;;;7.50;99.90;;;;;;5026695;28;20036;-67
2022/11/29 06:30:08;;;;;;;9.63;4.22;;;7.50;99.90;;;;;;5031632;28;20108;-67
2022/11/29 06:33:32;;;;;;;10.98;3.75;;;7.60;99.90;;;;;;4991594;28;20049;-67
2022/11/29 06:36:39;;;;;;;10.07;5.63;;;7.60;99.90;;;;;;4988530;28;20500;-67
2022/11/29 06:39:08;;;;;;;9.55;5.47;;;7.50;99.90;;;;;;4981701;28;20043;-66
2022/11/29 06:41:34;;;;;;;16.65;6.13;;;7.60;99.90;;;;;;5016551;28;20387;-66
2022/11/29 06:44:00;;;;;;;14.10;5.53;;;7.60;99.90;;;;;;5002130;28;20042;-67
2022/11/29 06:46:46;;;;;;;12.25;6.50;;;7.60;99.90;;;;;;5036151;28;20030;-67
2022/11/29 06:49:26;;;;;;;9.85;4.88;;;7.60;99.90;;;;;;5019661;28;20025;-67
2022/11/29 06:52:26;;;;;;;11.00;5.43;;;7.60;99.90;;;;;;5012194;28;20022;-67
2022/11/29 06:55:20;;;;;;;14.75;5.05;;;7.60;99.90;;;;;;5035037;28;20073;-67
2022/11/29 06:58:05;;;;;;;13.90;5.78;;;7.70;99.90;;;;;;5032219;28;20036;-66
2022/11/29 07:01:22;;;;;;;11.50;5.78;;;7.80;99.90;;;;;;5037837;28;20033;-67
2022/11/29 07:04:07;;;;;;;11.88;5.90;;;7.70;99.90;;;;;;4985762;28;20042;-65
2022/11/29 07:06:34;;;;;;;8.70;5.60;;;7.70;99.90;;;;;;5019093;28;20033;-68
2022/11/29 07:09:18;;;;;;;13.65;6.00;;;7.80;99.90;;;;;;5024985;28;20048;-71
2022/11/29 07:11:46;;;;;;;13.50;6.72;;;7.80;99.90;;;;;;5027092;28;20034;-65
2022/11/29 07:14:12;;;;;;;12.00;6.75;;;7.80;99.90;;;;;;5026035;28;20029;-68
2022/11/29 07:17:25;;;;;;;11.07;6.80;;;7.70;99.90;;;;;;5010868;28;20179;-69
2022/11/29 07:20:14;;;;;;;18.08;5.53;;;7.70;99.90;;;;;;5030008;28;20031;-69
2022/11/29 07:23:07;;;;;;;13.82;6.90;;;7.70;99.90;;;;;;5021074;28;20033;-68
2022/11/29 07:25:58;;;;;;;11.13;6.78;;;7.70;99.90;;;;;;5035440;28;20037;-68
2022/11/29 07:29:14;;;;;;;16.20;7.25;;;7.70;99.90;;;;;;5010620;28;20032;-68
2022/11/29 07:32:07;;;;;;;16.67;5.60;;;7.70;99.90;;;;;;5036263;28;20037;-69
2022/11/29 07:35:07;;;;;;;13.60;5.55;;;7.60;99.90;;;;;;5030615;28;20519;-69
2022/11/29 07:38:11;;;;;;;9.32;5.78;;;7.60;99.90;;;;;;5021174;28;20067;-68
2022/11/29 07:41:11;;;;;;;14.93;6.10;;;7.60;99.90;;;;;;5018609;28;20025;-68
2022/11/29 07:44:10;;;;;;;12.07;6.20;;;7.60;99.90;;;;;;5010590;28;20029;-68
2022/11/29 07:46:36;;;;;;;10.75;5.32;;;7.60;99.90;;;;;;5019835;28;20035;-68
2022/11/29 07:49:02;;;;;;;15.45;7.22;;;7.70;99.90;;;;;;5036760;28;20037;-68
2022/11/29 07:51:27;;;;;;;9.70;6.10;;;7.80;99.90;;;;;;5042408;28;20033;-68
2022/11/29 07:53:53;;;;;;;11.38;6.22;;;7.70;99.90;;;;;;5023191;28;20122;-68
2022/11/29 07:56:19;;;;;;;14.98;7.68;;;7.70;99.90;;;;;;5024951;28;20496;-68
2022/11/29 07:58:44;;;;;;;9.88;5.95;;;7.70;99.90;;;;;;5035698;28;20075;-68
2022/11/29 08:01:10;;;;;;;11.23;5.80;;;7.80;99.90;;;;;;5042692;28;20044;-68
2022/11/29 08:03:36;;;;;;;9.82;5.20;;;7.80;99.90;;;;;;5026639;28;20370;-68
2022/11/29 08:06:02;;;;;;;16.60;7.88;;;7.80;99.90;;;;;;5041304;28;20032;-68
2022/11/29 08:08:27;;;;;;;10.55;5.80;;;7.80;99.90;;;;;;5040326;28;20041;-68
2022/11/29 08:10:53;;;;;;;11.70;6.35;;;7.80;99.90;;;;;;5031940;28;20508;-68
2022/11/29 08:13:20;;;;;;;15.15;5.88;;;7.80;99.90;;;;;;5026324;28;20049;-68
2022/11/29 08:15:47;;;;;;;11.48;6.28;;;7.70;99.90;;;;;;5016288;28;20029;-68
2022/11/29 08:18:14;;;;;;;10.63;5.57;;;7.80;99.90;;;;;;5026513;28;20370;-68
2022/11/29 08:20:41;;;;;;;9.07;5.60;;;7.80;99.90;;;;;;5035082;28;20455;-68
2022/11/29 08:23:11;;;;;;;10.80;4.93;;;7.80;99.90;;;;;;4998120;28;20083;-69
2022/11/29 08:25:38;;;;;;;24.02;9.48;;;7.80;99.90;;;;;;5014796;28;20071;-68
2022/11/29 08:28:04;;;;;;;13.75;6.47;;;7.80;99.90;;;;;;5001629;28;20301;-69
2022/11/29 08:30:30;;;;;;;10.55;5.97;;;7.90;99.90;;;;;;5014727;28;20121;-68
2022/11/29 08:32:56;;;;;;;10.90;5.97;;;7.90;99.90;;;;;;5020463;28;20117;-68
2022/11/29 08:35:23;;;;;;;12.40;5.97;;;7.90;99.90;;;;;;5032391;28;20021;-68
2022/11/29 08:37:49;;;;;;;12.85;6.53;;;7.90;99.90;;;;;;5047473;28;20797;-68
2022/11/29 08:40:16;;;;;;;9.27;5.20;;;8.00;99.90;;;;;;5032194;28;20035;-68
2022/11/29 08:42:42;;;;;;;9.48;5.78;;;8.00;99.90;;;;;;5029025;28;20021;-68
2022/11/29 08:45:09;;;;;;;8.50;4.85;;;8.00;99.90;;;;;;5031698;28;20032;-71
2022/11/29 08:47:36;;;;;;;10.85;5.88;;;8.00;99.90;;;;;;5045775;28;20025;-70
2022/11/29 08:50:13;;;;;;;9.48;5.32;;;8.20;99.90;;;;;;5015632;28;20032;-70
2022/11/29 08:55:39;;;;;;;13.68;6.38;;;8.30;99.90;;;;;;5033734;28;20749;-69
2022/11/29 08:58:12;;;;;;;13.15;6.47;;;8.20;99.90;;;;;;5027812;28;20033;-68
2022/11/29 09:00:38;;;;;;;12.43;6.18;;;8.20;99.90;;;;;;5034370;28;20091;-69
2022/11/29 09:05:51;;;;;;;9.93;5.60;;;8.30;99.90;;;;;;5036897;28;20544;-68
2022/11/29 09:08:17;;;;;;;9.65;5.13;;;8.30;99.90;;;;;;4992582;28;20382;-68
2022/11/29 09:10:43;;;;;;;11.65;7.05;;;8.30;99.90;;;;;;5038167;28;20033;-68
2022/11/29 09:13:10;;;;;;;11.70;5.47;;;8.30;99.90;;;;;;5016615;28;20088;-68
2022/11/29 09:15:38;;;;;;;12.05;6.63;;;8.40;99.90;;;;;;5020449;28;20053;-68
2022/11/29 09:18:04;;;;;;;12.25;6.10;;;8.30;99.90;;;;;;5027708;28;20189;-67
2022/11/29 09:20:31;;;;;;;12.98;6.15;;;8.30;99.90;;;;;;5030436;28;20034;-68
2022/11/29 09:22:58;;;;;;;10.57;6.15;;;8.30;99.90;;;;;;5020850;28;20145;-68
2022/11/29 09:25:24;;;;;;;10.35;5.25;;;8.20;99.90;;;;;;5017365;28;20036;-68
2022/11/29 09:27:50;;;;;;;14.73;6.20;;;8.30;99.90;;;;;;5032017;28;20152;-68
2022/11/29 09:30:17;;;;;;;14.35;6.47;;;8.30;99.90;;;;;;5021312;28;20112;-69
2022/11/29 09:32:44;;;;;;;15.82;6.15;;;8.30;99.90;;;;;;5020312;28;20033;-68
2022/11/29 09:35:11;;;;;;;13.02;5.85;;;8.30;99.90;;;;;;5019643;28;20026;-68
2022/11/29 09:37:40;;;;;;;9.05;5.50;;;8.30;99.90;;;;;;5006741;28;20388;-68
2022/11/29 09:40:07;;;;;;;9.30;5.38;;;8.30;99.90;;;;;;5015225;28;20025;-68
2022/11/29 09:43:04;;;;;;;13.50;7.20;;;8.30;99.90;;;;;;5029797;28;20052;-68
2022/11/29 09:45:38;;;;;;;17.63;6.18;;;8.40;99.90;;;;;;5014418;28;20021;-68
2022/11/29 09:48:11;;;;;;;10.43;6.25;;;8.40;99.90;;;;;;5019885;28;20034;-67
2022/11/29 09:50:47;;;;;;;10.85;6.32;;;8.50;99.90;;;;;;5019242;28;20094;-67
2022/11/29 09:53:46;;;;;;;9.35;5.45;;;8.50;99.90;;;;;;4988372;28;20036;-67
2022/11/29 09:56:29;;;;;;;13.95;5.43;;;8.50;99.90;;;;;;5006276;28;20136;-68
2022/11/29 09:59:23;;;;;;;13.25;6.30;;;8.50;99.90;;;;;;5036334;28;20039;-68
2022/11/29 10:02:27;;;;;;;10.88;5.03;;;8.50;99.90;;;;;;5019345;28;20112;-68
2022/11/29 10:05:09;;;;;;;10.25;6.07;;;8.50;99.90;;;;;;5005531;28;20050;-68
2022/11/29 10:07:47;;;;;;;9.63;5.53;;;8.50;99.90;;;;;;5044756;28;20039;-68
2022/11/29 10:10:36;;;;;;;9.55;5.38;;;8.60;99.90;;;;;;5026983;28;20036;-67
2022/11/29 10:13:22;;;;;;;12.80;5.13;;;8.50;99.90;;;;;;5025019;28;20030;-68
2022/11/29 10:15:53;;;;;;;11.18;5.55;;;8.60;99.90;;;;;;5034404;28;20033;-67
2022/11/29 10:18:39;;;;;;;10.10;5.65;;;8.60;99.90;;;;;;5009187;28;20029;-68
2022/11/29 10:21:12;;;;;;;15.65;5.95;;;8.60;99.90;;;;;;5024927;28;20048;-67
2022/11/29 10:23:47;;;;;;;7.90;4.88;;;8.70;99.90;;;;;;5030767;28;20086;-67
2022/11/29 10:26:13;;;;;;;10.93;5.22;;;8.70;99.90;;;;;;5023069;28;20091;-67
2022/11/29 10:28:43;;;;;;;10.77;6.03;;;8.80;99.90;;;;;;5031159;28;20411;-67
2022/11/29 10:31:25;;;;;;;11.00;5.33;;;8.80;99.90;;;;;;5023538;28;20362;-68
2022/11/29 10:33:54;;;;;;;13.75;6.03;;;8.80;99.90;;;;;;5031243;28;20112;-67
2022/11/29 10:36:38;;;;;;;9.20;4.75;;;8.70;99.90;;;;;;5040690;28;20038;-68
2022/11/29 10:39:15;;;;;;;10.65;6.32;;;8.70;99.90;;;;;;5005288;28;20021;-67
2022/11/29 10:41:41;;;;;;;10.65;5.50;;;8.70;99.90;;;;;;5021098;28;20088;-67
2022/11/29 10:44:13;;;;;;;18.60;6.07;;;8.80;99.90;;;;;;5003347;28;20420;-68
2022/11/29 10:46:40;;;;;;;9.00;5.15;;;8.80;99.90;;;;;;5036970;28;20140;-68
2022/11/29 10:49:13;;;;;;;9.98;6.38;;;8.80;99.90;;;;;;5030242;28;20624;-68
2022/11/29 10:51:39;;;;;;;11.45;6.00;;;8.80;99.90;;;;;;5019338;28;20106;-68
2022/11/29 10:54:41;;;;;;;12.48;5.90;;;8.90;99.90;;;;;;5016048;28;20481;-69
2022/11/29 10:57:17;;;;;;;12.52;6.13;;;9.00;99.90;;;;;;5021700;28;20030;-68
2022/11/29 11:00:08;;;;;;;13.43;6.95;;;8.90;99.90;;;;;;5017258;28;20076;-65
2022/11/29 11:02:35;;;;;;;11.52;6.30;;;8.90;99.90;;;;;;5043711;28;20076;-66
2022/11/29 11:05:02;;;;;;;13.45;7.43;;;9.00;99.90;;;;;;5019937;28;20037;-68
2022/11/29 11:07:34;;;;;;;17.42;7.35;;;9.10;99.90;;;;;;5043498;28;20392;-67
2022/11/29 11:10:03;;;;;;;9.93;5.95;;;9.10;99.90;;;;;;5020713;28;20550;-68
2022/11/29 11:12:33;;;;;;;9.77;5.45;;;9.20;99.90;;;;;;5022339;28;20787;-67
2022/11/29 11:15:23;;;;;;;11.48;5.97;;;9.10;99.90;;;;;;5014566;28;20053;-67
2022/11/29 11:18:04;;;;;;;10.10;6.25;;;9.20;99.90;;;;;;5043354;28;20041;-70
2022/11/29 11:20:41;;;;;;;10.18;5.97;;;9.20;99.90;;;;;;5037307;28;20053;-67
2022/11/29 11:23:24;;;;;;;12.32;5.57;;;9.20;99.90;;;;;;5017592;28;20033;-67
2022/11/29 11:26:05;;;;;;;10.82;4.20;;;9.30;99.90;;;;;;5019144;28;20025;-66
2022/11/29 11:29:01;;;;;;;17.50;4.85;;;9.30;99.90;;;;;;5046769;28;20064;-69
2022/11/29 11:31:36;;;;;;;8.55;4.80;;;9.40;99.90;;;;;;5021562;28;20409;-69
2022/11/29 11:34:27;;;;;;;16.35;5.82;;;9.30;99.90;;;;;;5024675;28;20056;-69
2022/11/29 11:37:11;;;;;;;7.10;4.23;;;9.40;99.90;;;;;;5029118;28;20559;-67
2022/11/29 11:39:37;;;;;;;7.40;4.30;;;9.30;99.90;;;;;;5018887;28;20037;-67
2022/11/29 11:44:51;;;;;;;7.93;5.00;;;9.30;99.90;;;;;;5027371;28;20036;-67
2022/11/29 11:47:31;;;;;;;8.68;5.18;;;9.30;99.90;;;;;;5035012;28;20018;-67
2022/11/29 11:50:03;;;;;;;21.58;4.68;;;9.40;99.90;;;;;;5011028;28;20036;-69
2022/11/29 11:52:47;;;;;;;7.55;4.30;;;9.40;99.90;;;;;;5027144;28;20090;-69
2022/11/29 11:55:30;;;;;;;11.50;4.90;;;9.40;99.90;;;;;;5035503;23;20052;-62
2022/11/29 11:58:17;;;;;;;10.73;4.57;;;9.30;99.90;;;;;;5025219;28;20061;-61
2022/11/29 12:01:04;;;;;;;12.35;5.85;;;9.30;99.90;;;;;;5031991;28;20041;-62
2022/11/29 12:04:00;;;;;;;12.10;5.05;;;9.30;99.90;;;;;;5026232;28;20029;-62
2022/11/29 12:07:01;;;;;;;8.15;4.78;;;9.30;99.90;;;;;;5003554;28;20080;-62
2022/11/29 12:09:46;;;;;;;15.05;6.00;;;9.20;99.90;;;;;;5002503;28;20517;-62
2022/11/29 12:12:25;;;;;;;12.57;4.78;;;9.30;99.90;;;;;;5004116;28;20048;-62
2022/11/29 12:15:00;;;;;;;12.20;4.32;;;9.20;99.90;;;;;;5000119;28;20041;-62
2022/11/29 12:17:56;;;;;;;11.02;4.80;;;9.30;99.90;;;;;;4988445;28;20801;-62
2022/11/29 12:20:35;;;;;;;9.95;4.10;;;9.30;99.90;;;;;;4991699;28;20398;-62
2022/11/29 12:23:10;;;;;;;11.93;4.18;;;9.30;99.90;;;;;;4993454;28;20061;-62
2022/11/29 12:26:10;;;;;;;8.65;4.22;;;9.30;99.90;;;;;;5011379;28;20034;-62
2022/11/29 12:28:39;;;;;;;13.57;4.57;;;9.30;99.90;;;;;;5001223;28;20108;-62
2022/11/29 12:31:44;;;;;;;9.48;4.70;;;9.30;99.90;;;;;;5011888;28;20068;-62
2022/11/29 12:34:51;;;;;;;14.35;5.05;;;9.30;99.90;;;;;;5007258;28;20049;-62
2022/11/29 12:37:41;;;;;;;13.13;4.97;;;9.30;99.90;;;;;;5005311;28;20034;-65
2022/11/29 12:40:28;;;;;;;19.92;5.63;;;9.30;99.90;;;;;;5014158;28;20136;-63
2022/11/29 12:43:28;;;;;;;11.98;5.78;;;9.30;99.90;;;;;;5002455;28;20117;-63
2022/11/29 12:46:19;;;;;;;17.38;5.68;;;9.30;99.90;;;;;;5011138;28;20136;-62
2022/11/29 12:49:07;;;;;;;10.43;7.05;;;9.30;99.90;;;;;;5025293;28;20053;-62
2022/11/29 12:52:00;;;;;;;11.77;4.85;;;9.30;99.90;;;;;;5029845;28;20025;-61
2022/11/29 12:55:00;;;;;;;9.57;4.25;;;9.30;99.90;;;;;;5024390;28;20030;-62
2022/11/29 12:57:55;;;;;;;10.63;5.68;;;9.30;99.90;;;;;;4998243;28;20110;-62
2022/11/29 13:00:22;;;;;;;14.48;5.13;;;9.30;99.90;;;;;;5000868;28;20068;-62
2022/11/29 13:03:21;;;;;;;15.93;5.32;;;9.30;99.90;;;;;;5006182;28;20022;-62
2022/11/29 13:06:29;;;;;;;12.52;5.70;;;9.30;99.90;;;;;;5020373;28;20046;-62
2022/11/29 13:09:21;;;;;;;22.48;6.45;;;9.40;99.90;;;;;;5001480;28;20084;-62
2022/11/29 13:12:17;;;;;;;18.02;5.57;;;9.20;99.90;;;;;;5022089;28;20029;-62
2022/11/29 13:15:04;;;;;;;14.30;5.22;;;9.30;99.90;;;;;;5026440;28;20104;-62
2022/11/29 13:17:48;;;;;;;10.07;4.57;;;9.30;99.90;;;;;;5028676;28;20036;-62
2022/11/29 13:20:55;;;;;;;16.58;5.97;;;9.30;99.90;;;;;;4986605;28;20053;-62
2022/11/29 13:23:34;;;;;;;14.73;5.20;;;9.30;99.90;;;;;;5012787;28;20496;-61
2022/11/29 13:26:05;;;;;;;15.65;6.45;;;9.30;99.90;;;;;;5028464;28;20048;-62
2022/11/29 13:28:36;;;;;;;16.40;6.30;;;9.40;99.90;;;;;;5025774;28;20695;-61
2022/11/29 13:31:06;;;;;;;8.20;5.72;;;9.40;99.90;;;;;;5029088;28;20029;-62
2022/11/29 13:34:01;;;;;;;17.30;6.10;;;9.40;99.90;;;;;;5017482;28;20027;-62
2022/11/29 13:36:46;;;;;;;10.32;5.10;;;9.40;99.90;;;;;;5021827;28;20041;-62
2022/11/29 13:39:48;;;;;;;15.68;6.80;;;9.40;99.90;;;;;;5025091;28;20033;-62
2022/11/29 13:42:57;;;;;;;10.77;5.68;;;9.40;99.90;;;;;;5006728;28;20029;-62
2022/11/29 13:45:49;;;;;;;14.15;5.95;;;9.40;99.90;;;;;;4996069;28;20030;-62
2022/11/29 13:48:44;;;;;;;16.27;5.47;;;9.40;99.90;;;;;;4994372;28;20033;-62
2022/11/29 13:51:37;;;;;;;15.55;5.30;;;9.30;99.90;;;;;;5002975;28;20030;-62
2022/11/29 13:54:25;;;;;;;15.77;6.50;;;9.40;99.90;;;;;;5002975;28;20044;-62
2022/11/29 13:57:05;;;;;;;15.15;6.75;;;9.30;99.90;;;;;;5014688;28;20030;-62
2022/11/29 13:59:35;;;;;;;16.53;6.87;;;9.30;99.90;;;;;;4999604;28;20045;-62
2022/11/29 14:02:02;;;;;;;13.40;6.18;;;9.30;99.90;;;;;;4975249;28;20325;-62
2022/11/29 14:04:38;;;;;;;13.10;5.95;;;9.30;99.90;;;;;;4984489;28;20173;-62
2022/11/29 14:07:18;;;;;;;12.98;6.13;;;9.30;99.90;;;;;;5025152;28;20036;-62
2022/11/29 14:10:15;;;;;;;15.98;6.65;;;9.20;99.90;;;;;;5017351;28;20037;-62
2022/11/29 14:12:55;;;;;;;11.82;6.00;;;9.20;99.90;;;;;;4994100;28;20054;-62
2022/11/29 14:15:30;;;;;;;15.73;5.97;;;9.30;99.90;;;;;;5011617;28;20022;-63
2022/11/29 14:18:01;;;;;;;10.85;5.65;;;9.30;99.90;;;;;;5004774;28;20066;-62